Terminal Aerodrome Forecast
Issued by NWS

Home | Current Version | Previous Version | Text Only | Print | Product List | Glossary On
Versions: 1 2 3 4 5 6 7 8 9 10 11 12 13 14 15
000
FTUS45 KMSO 301421 AAA
TAFSMN
TAF AMD
KSMN 301421Z 3014/3112 VRB03KT 6SM FU SCT050 BKN100
     FM302100 20010G20KT P6SM BKN080
     FM310100 VRB05KT P6SM BKN100
      AMD LTD TO CLD VIS AND WIND=

USA.gov is the U.S. government's official web portal to all federal, state and local government web resources and services.